sensor_id;sensor_type;location;lat;lon;timestamp;P1;durP1;ratioP1;P2;durP2;ratioP2
22973;SDS011;11653;50.848;4.584;2023-04-07T00:00:06;25.80;;;9.60;;
22973;SDS011;11653;50.848;4.584;2023-04-07T00:02:32;22.93;;;10.60;;
22973;SDS011;11653;50.848;4.584;2023-04-07T00:04:58;23.40;;;10.40;;
22973;SDS011;11653;50.848;4.584;2023-04-07T00:07:23;27.77;;;9.90;;
22973;SDS011;11653;50.848;4.584;2023-04-07T00:09:49;25.63;;;10.80;;
22973;SDS011;11653;50.848;4.584;2023-04-07T00:12:15;21.70;;;10.30;;
22973;SDS011;11653;50.848;4.584;2023-04-07T00:14:41;33.10;;;10.67;;
22973;SDS011;11653;50.848;4.584;2023-04-07T00:17:06;28.63;;;10.70;;
22973;SDS011;11653;50.848;4.584;2023-04-07T00:19:32;20.60;;;10.30;;
22973;SDS011;11653;50.848;4.584;2023-04-07T00:21:58;29.83;;;10.83;;
22973;SDS011;11653;50.848;4.584;2023-04-07T00:24:23;23.57;;;10.40;;
22973;SDS011;11653;50.848;4.584;2023-04-07T00:26:49;22.80;;;9.87;;
22973;SDS011;11653;50.848;4.584;2023-04-07T00:29:15;26.57;;;11.17;;
22973;SDS011;11653;50.848;4.584;2023-04-07T00:31:40;23.60;;;11.30;;
22973;SDS011;11653;50.848;4.584;2023-04-07T00:34:06;30.80;;;11.93;;
22973;SDS011;11653;50.848;4.584;2023-04-07T00:36:32;30.33;;;11.50;;
22973;SDS011;11653;50.848;4.584;2023-04-07T00:38:57;24.30;;;12.37;;
22973;SDS011;11653;50.848;4.584;2023-04-07T00:41:23;28.30;;;13.90;;
22973;SDS011;11653;50.848;4.584;2023-04-07T00:43:49;30.90;;;12.93;;
22973;SDS011;11653;50.848;4.584;2023-04-07T00:46:15;30.63;;;13.47;;
22973;SDS011;11653;50.848;4.584;2023-04-07T00:48:42;34.33;;;14.67;;
22973;SDS011;11653;50.848;4.584;2023-04-07T00:51:08;28.67;;;13.70;;
22973;SDS011;11653;50.848;4.584;2023-04-07T00:53:34;32.13;;;14.17;;
22973;SDS011;11653;50.848;4.584;2023-04-07T00:56:00;33.73;;;14.57;;
22973;SDS011;11653;50.848;4.584;2023-04-07T00:58:26;26.80;;;14.17;;
22973;SDS011;11653;50.848;4.584;2023-04-07T01:00:54;30.70;;;15.57;;
22973;SDS011;11653;50.848;4.584;2023-04-07T01:03:32;41.40;;;17.17;;
22973;SDS011;11653;50.848;4.584;2023-04-07T01:06:10;34.37;;;16.83;;
22973;SDS011;11653;50.848;4.584;2023-04-07T01:11:54;32.73;;;16.17;;
22973;SDS011;11653;50.848;4.584;2023-04-07T01:14:32;33.17;;;16.93;;
22973;SDS011;11653;50.848;4.584;2023-04-07T01:17:02;37.73;;;18.27;;
22973;SDS011;11653;50.848;4.584;2023-04-07T01:19:32;37.73;;;17.97;;
22973;SDS011;11653;50.848;4.584;2023-04-07T01:21:58;34.77;;;17.83;;
22973;SDS011;11653;50.848;4.584;2023-04-07T01:27:24;35.30;;;17.23;;
22973;SDS011;11653;50.848;4.584;2023-04-07T01:30:12;37.00;;;17.60;;
22973;SDS011;11653;50.848;4.584;2023-04-07T01:32:40;38.23;;;19.37;;
22973;SDS011;11653;50.848;4.584;2023-04-07T01:35:10;41.03;;;18.47;;
22973;SDS011;11653;50.848;4.584;2023-04-07T01:37:37;39.60;;;17.47;;
22973;SDS011;11653;50.848;4.584;2023-04-07T01:40:04;39.27;;;19.60;;
22973;SDS011;11653;50.848;4.584;2023-04-07T01:42:32;37.73;;;18.60;;
22973;SDS011;11653;50.848;4.584;2023-04-07T01:44:59;45.30;;;18.80;;
22973;SDS011;11653;50.848;4.584;2023-04-07T01:47:27;37.13;;;17.57;;
22973;SDS011;11653;50.848;4.584;2023-04-07T01:49:55;42.03;;;18.13;;
22973;SDS011;11653;50.848;4.584;2023-04-07T01:52:22;39.13;;;18.43;;
22973;SDS011;11653;50.848;4.584;2023-04-07T01:54:50;38.80;;;18.70;;
22973;SDS011;11653;50.848;4.584;2023-04-07T01:57:16;43.10;;;19.77;;
22973;SDS011;11653;50.848;4.584;2023-04-07T01:59:42;42.93;;;18.63;;
22973;SDS011;11653;50.848;4.584;2023-04-07T02:02:07;38.20;;;19.23;;
22973;SDS011;11653;50.848;4.584;2023-04-07T02:07:08;41.57;;;18.37;;
22973;SDS011;11653;50.848;4.584;2023-04-07T02:09:46;43.90;;;19.00;;
22973;SDS011;11653;50.848;4.584;2023-04-07T02:12:13;38.57;;;17.67;;
22973;SDS011;11653;50.848;4.584;2023-04-07T02:14:40;40.57;;;18.70;;
22973;SDS011;11653;50.848;4.584;2023-04-07T02:17:07;35.57;;;17.53;;
22973;SDS011;11653;50.848;4.584;2023-04-07T02:19:34;37.00;;;18.13;;
22973;SDS011;11653;50.848;4.584;2023-04-07T02:22:01;37.33;;;17.33;;
22973;SDS011;11653;50.848;4.584;2023-04-07T02:24:28;37.03;;;17.63;;
22973;SDS011;11653;50.848;4.584;2023-04-07T02:26:54;39.90;;;18.73;;
22973;SDS011;11653;50.848;4.584;2023-04-07T02:29:20;42.57;;;17.50;;
22973;SDS011;11653;50.848;4.584;2023-04-07T02:31:45;41.40;;;18.53;;
22973;SDS011;11653;50.848;4.584;2023-04-07T02:34:11;36.73;;;19.20;;
22973;SDS011;11653;50.848;4.584;2023-04-07T02:36:37;42.70;;;20.30;;
22973;SDS011;11653;50.848;4.584;2023-04-07T02:39:02;46.33;;;19.87;;
22973;SDS011;11653;50.848;4.584;2023-04-07T02:41:28;55.57;;;23.13;;
22973;SDS011;11653;50.848;4.584;2023-04-07T02:43:54;54.80;;;24.20;;
22973;SDS011;11653;50.848;4.584;2023-04-07T02:46:19;45.90;;;22.53;;
22973;SDS011;11653;50.848;4.584;2023-04-07T02:48:45;54.13;;;24.27;;
22973;SDS011;11653;50.848;4.584;2023-04-07T02:51:11;58.97;;;26.43;;
22973;SDS011;11653;50.848;4.584;2023-04-07T02:53:36;58.33;;;24.90;;
22973;SDS011;11653;50.848;4.584;2023-04-07T02:56:02;56.33;;;24.83;;
22973;SDS011;11653;50.848;4.584;2023-04-07T02:58:28;50.80;;;24.83;;
22973;SDS011;11653;50.848;4.584;2023-04-07T03:00:54;55.00;;;25.03;;
22973;SDS011;11653;50.848;4.584;2023-04-07T03:03:19;60.80;;;25.17;;
22973;SDS011;11653;50.848;4.584;2023-04-07T03:05:45;47.60;;;23.13;;
22973;SDS011;11653;50.848;4.584;2023-04-07T03:08:10;60.10;;;24.57;;
22973;SDS011;11653;50.848;4.584;2023-04-07T03:10:36;50.20;;;23.80;;
22973;SDS011;11653;50.848;4.584;2023-04-07T03:13:02;56.87;;;24.00;;
22973;SDS011;11653;50.848;4.584;2023-04-07T03:15:27;59.20;;;24.67;;
22973;SDS011;11653;50.848;4.584;2023-04-07T03:17:53;60.70;;;24.40;;
22973;SDS011;11653;50.848;4.584;2023-04-07T03:20:18;48.80;;;23.63;;
22973;SDS011;11653;50.848;4.584;2023-04-07T03:22:44;50.07;;;22.20;;
22973;SDS011;11653;50.848;4.584;2023-04-07T03:25:11;45.27;;;22.53;;
22973;SDS011;11653;50.848;4.584;2023-04-07T03:27:37;51.83;;;24.10;;
22973;SDS011;11653;50.848;4.584;2023-04-07T03:30:02;47.73;;;23.13;;
22973;SDS011;11653;50.848;4.584;2023-04-07T03:32:28;53.93;;;22.37;;
22973;SDS011;11653;50.848;4.584;2023-04-07T03:34:54;47.73;;;23.30;;
22973;SDS011;11653;50.848;4.584;2023-04-07T03:37:21;48.43;;;23.47;;
22973;SDS011;11653;50.848;4.584;2023-04-07T03:39:46;51.33;;;23.07;;
22973;SDS011;11653;50.848;4.584;2023-04-07T03:42:15;44.53;;;23.47;;
22973;SDS011;11653;50.848;4.584;2023-04-07T03:44:40;52.00;;;24.40;;
22973;SDS011;11653;50.848;4.584;2023-04-07T03:47:06;45.13;;;23.13;;
22973;SDS011;11653;50.848;4.584;2023-04-07T03:49:32;50.37;;;23.00;;
22973;SDS011;11653;50.848;4.584;2023-04-07T03:52:02;51.87;;;22.73;;
22973;SDS011;11653;50.848;4.584;2023-04-07T03:54:29;49.43;;;23.27;;
22973;SDS011;11653;50.848;4.584;2023-04-07T03:56:55;43.27;;;22.00;;
22973;SDS011;11653;50.848;4.584;2023-04-07T03:59:21;48.50;;;22.93;;
22973;SDS011;11653;50.848;4.584;2023-04-07T04:01:47;50.97;;;24.07;;
22973;SDS011;11653;50.848;4.584;2023-04-07T04:04:12;52.83;;;24.63;;
22973;SDS011;11653;50.848;4.584;2023-04-07T04:06:38;48.43;;;24.10;;
22973;SDS011;11653;50.848;4.584;2023-04-07T04:09:04;48.17;;;22.80;;
22973;SDS011;11653;50.848;4.584;2023-04-07T04:11:30;48.53;;;22.73;;
22973;SDS011;11653;50.848;4.584;2023-04-07T04:13:55;59.43;;;23.90;;
22973;SDS011;11653;50.848;4.584;2023-04-07T04:16:21;53.70;;;26.07;;
22973;SDS011;11653;50.848;4.584;2023-04-07T04:18:46;48.93;;;24.00;;
22973;SDS011;11653;50.848;4.584;2023-04-07T04:21:12;49.47;;;23.43;;
22973;SDS011;11653;50.848;4.584;2023-04-07T04:23:38;50.90;;;24.03;;
22973;SDS011;11653;50.848;4.584;2023-04-07T04:26:03;48.47;;;24.47;;
22973;SDS011;11653;50.848;4.584;2023-04-07T04:28:29;47.50;;;23.80;;
22973;SDS011;11653;50.848;4.584;2023-04-07T04:30:55;55.83;;;24.10;;
22973;SDS011;11653;50.848;4.584;2023-04-07T04:33:20;53.07;;;24.97;;
22973;SDS011;11653;50.848;4.584;2023-04-07T04:35:46;53.73;;;22.73;;
22973;SDS011;11653;50.848;4.584;2023-04-07T04:38:12;51.27;;;24.07;;
22973;SDS011;11653;50.848;4.584;2023-04-07T04:40:37;41.80;;;22.90;;
22973;SDS011;11653;50.848;4.584;2023-04-07T04:43:03;52.30;;;23.63;;
22973;SDS011;11653;50.848;4.584;2023-04-07T04:45:33;51.33;;;23.97;;
22973;SDS011;11653;50.848;4.584;2023-04-07T04:47:59;55.77;;;23.73;;
22973;SDS011;11653;50.848;4.584;2023-04-07T04:50:25;41.80;;;23.63;;
22973;SDS011;11653;50.848;4.584;2023-04-07T04:52:51;50.60;;;23.03;;
22973;SDS011;11653;50.848;4.584;2023-04-07T04:55:16;50.20;;;22.80;;
22973;SDS011;11653;50.848;4.584;2023-04-07T04:57:42;50.93;;;22.43;;
22973;SDS011;11653;50.848;4.584;2023-04-07T05:00:08;48.90;;;22.50;;
22973;SDS011;11653;50.848;4.584;2023-04-07T05:02:35;45.10;;;22.70;;
22973;SDS011;11653;50.848;4.584;2023-04-07T05:05:01;49.57;;;22.47;;
22973;SDS011;11653;50.848;4.584;2023-04-07T05:07:27;54.60;;;23.30;;
22973;SDS011;11653;50.848;4.584;2023-04-07T05:09:53;52.63;;;23.20;;
22973;SDS011;11653;50.848;4.584;2023-04-07T05:12:19;50.43;;;23.37;;
22973;SDS011;11653;50.848;4.584;2023-04-07T05:14:45;45.73;;;22.13;;
22973;SDS011;11653;50.848;4.584;2023-04-07T05:17:11;44.40;;;21.47;;
22973;SDS011;11653;50.848;4.584;2023-04-07T05:19:36;43.40;;;21.67;;
22973;SDS011;11653;50.848;4.584;2023-04-07T05:22:02;55.07;;;23.40;;
22973;SDS011;11653;50.848;4.584;2023-04-07T05:24:28;53.50;;;22.60;;
22973;SDS011;11653;50.848;4.584;2023-04-07T05:26:54;51.10;;;22.20;;
22973;SDS011;11653;50.848;4.584;2023-04-07T05:29:21;53.07;;;20.67;;
22973;SDS011;11653;50.848;4.584;2023-04-07T05:31:46;55.27;;;23.43;;
22973;SDS011;11653;50.848;4.584;2023-04-07T05:34:12;40.67;;;21.07;;
22973;SDS011;11653;50.848;4.584;2023-04-07T05:36:38;48.30;;;21.57;;
22973;SDS011;11653;50.848;4.584;2023-04-07T05:39:03;49.60;;;22.07;;
22973;SDS011;11653;50.848;4.584;2023-04-07T05:41:29;57.20;;;21.77;;
22973;SDS011;11653;50.848;4.584;2023-04-07T05:43:55;47.30;;;21.37;;
22973;SDS011;11653;50.848;4.584;2023-04-07T05:46:20;49.37;;;22.73;;
22973;SDS011;11653;50.848;4.584;2023-04-07T05:48:46;54.97;;;23.37;;
22973;SDS011;11653;50.848;4.584;2023-04-07T05:51:12;53.10;;;23.17;;
22973;SDS011;11653;50.848;4.584;2023-04-07T05:53:37;57.20;;;24.10;;
22973;SDS011;11653;50.848;4.584;2023-04-07T05:56:03;59.93;;;24.67;;
22973;SDS011;11653;50.848;4.584;2023-04-07T05:58:29;53.07;;;24.27;;
22973;SDS011;11653;50.848;4.584;2023-04-07T06:00:54;49.53;;;21.43;;
22973;SDS011;11653;50.848;4.584;2023-04-07T06:03:21;51.67;;;20.73;;
22973;SDS011;11653;50.848;4.584;2023-04-07T06:05:46;48.77;;;21.10;;
22973;SDS011;11653;50.848;4.584;2023-04-07T06:08:12;46.73;;;20.07;;
22973;SDS011;11653;50.848;4.584;2023-04-07T06:10:37;48.50;;;20.07;;
22973;SDS011;11653;50.848;4.584;2023-04-07T06:13:05;49.83;;;20.70;;
22973;SDS011;11653;50.848;4.584;2023-04-07T06:15:31;49.03;;;21.67;;
22973;SDS011;11653;50.848;4.584;2023-04-07T06:17:57;49.33;;;20.87;;
22973;SDS011;11653;50.848;4.584;2023-04-07T06:20:23;52.40;;;20.53;;
22973;SDS011;11653;50.848;4.584;2023-04-07T06:22:49;47.20;;;22.07;;
22973;SDS011;11653;50.848;4.584;2023-04-07T06:25:15;49.60;;;21.63;;
22973;SDS011;11653;50.848;4.584;2023-04-07T06:27:40;49.67;;;20.90;;
22973;SDS011;11653;50.848;4.584;2023-04-07T06:30:06;52.80;;;20.43;;
22973;SDS011;11653;50.848;4.584;2023-04-07T06:32:32;48.50;;;21.30;;
22973;SDS011;11653;50.848;4.584;2023-04-07T06:34:58;45.30;;;20.60;;
22973;SDS011;11653;50.848;4.584;2023-04-07T06:37:24;44.27;;;19.93;;
22973;SDS011;11653;50.848;4.584;2023-04-07T06:39:50;44.30;;;19.87;;
22973;SDS011;11653;50.848;4.584;2023-04-07T06:42:16;43.60;;;18.93;;
22973;SDS011;11653;50.848;4.584;2023-04-07T06:44:41;43.13;;;20.27;;
22973;SDS011;11653;50.848;4.584;2023-04-07T06:47:07;40.90;;;18.40;;
22973;SDS011;11653;50.848;4.584;2023-04-07T06:49:33;41.43;;;18.00;;
22973;SDS011;11653;50.848;4.584;2023-04-07T06:51:59;37.10;;;17.93;;
22973;SDS011;11653;50.848;4.584;2023-04-07T06:54:25;45.90;;;17.93;;
22973;SDS011;11653;50.848;4.584;2023-04-07T06:56:50;43.63;;;18.03;;
22973;SDS011;11653;50.848;4.584;2023-04-07T06:59:16;40.40;;;16.87;;
22973;SDS011;11653;50.848;4.584;2023-04-07T07:01:42;44.37;;;17.10;;
22973;SDS011;11653;50.848;4.584;2023-04-07T07:04:08;38.07;;;16.90;;
22973;SDS011;11653;50.848;4.584;2023-04-07T07:06:34;37.57;;;17.53;;
22973;SDS011;11653;50.848;4.584;2023-04-07T07:08:59;42.03;;;17.50;;
22973;SDS011;11653;50.848;4.584;2023-04-07T07:11:27;30.70;;;15.20;;
22973;SDS011;11653;50.848;4.584;2023-04-07T07:13:52;32.70;;;16.00;;
22973;SDS011;11653;50.848;4.584;2023-04-07T07:16:18;36.90;;;16.33;;
22973;SDS011;11653;50.848;4.584;2023-04-07T07:18:44;29.50;;;15.40;;
22973;SDS011;11653;50.848;4.584;2023-04-07T07:21:10;26.63;;;15.23;;
22973;SDS011;11653;50.848;4.584;2023-04-07T07:23:35;28.03;;;16.00;;
22973;SDS011;11653;50.848;4.584;2023-04-07T07:26:01;36.00;;;17.13;;
22973;SDS011;11653;50.848;4.584;2023-04-07T07:28:27;26.00;;;14.03;;
22973;SDS011;11653;50.848;4.584;2023-04-07T07:30:53;20.70;;;12.63;;
22973;SDS011;11653;50.848;4.584;2023-04-07T07:33:19;22.43;;;11.97;;
22973;SDS011;11653;50.848;4.584;2023-04-07T07:35:46;19.10;;;11.10;;
22973;SDS011;11653;50.848;4.584;2023-04-07T07:38:12;18.07;;;10.23;;
22973;SDS011;11653;50.848;4.584;2023-04-07T07:40:38;17.70;;;10.30;;
22973;SDS011;11653;50.848;4.584;2023-04-07T07:43:04;17.00;;;10.40;;
22973;SDS011;11653;50.848;4.584;2023-04-07T07:45:30;16.60;;;9.63;;
22973;SDS011;11653;50.848;4.584;2023-04-07T07:47:56;18.03;;;9.80;;
22973;SDS011;11653;50.848;4.584;2023-04-07T07:50:22;19.07;;;10.03;;
22973;SDS011;11653;50.848;4.584;2023-04-07T07:52:47;18.20;;;11.20;;
22973;SDS011;11653;50.848;4.584;2023-04-07T07:55:13;17.23;;;10.80;;
22973;SDS011;11653;50.848;4.584;2023-04-07T07:57:39;18.00;;;10.87;;
22973;SDS011;11653;50.848;4.584;2023-04-07T08:00:04;18.37;;;10.30;;
22973;SDS011;11653;50.848;4.584;2023-04-07T08:02:31;17.33;;;10.20;;
22973;SDS011;11653;50.848;4.584;2023-04-07T08:04:57;19.50;;;10.83;;
22973;SDS011;11653;50.848;4.584;2023-04-07T08:07:23;18.53;;;11.03;;
22973;SDS011;11653;50.848;4.584;2023-04-07T08:09:50;24.67;;;11.47;;
22973;SDS011;11653;50.848;4.584;2023-04-07T08:12:15;15.30;;;9.50;;
22973;SDS011;11653;50.848;4.584;2023-04-07T08:14:41;17.23;;;9.90;;
22973;SDS011;11653;50.848;4.584;2023-04-07T08:17:07;16.57;;;8.73;;
22973;SDS011;11653;50.848;4.584;2023-04-07T08:19:32;17.97;;;9.20;;
22973;SDS011;11653;50.848;4.584;2023-04-07T08:21:58;19.57;;;10.07;;
22973;SDS011;11653;50.848;4.584;2023-04-07T08:24:24;17.50;;;9.93;;
22973;SDS011;11653;50.848;4.584;2023-04-07T08:26:50;18.33;;;9.00;;
22973;SDS011;11653;50.848;4.584;2023-04-07T08:29:15;14.73;;;8.60;;
22973;SDS011;11653;50.848;4.584;2023-04-07T08:31:41;13.90;;;7.97;;
22973;SDS011;11653;50.848;4.584;2023-04-07T08:34:06;13.47;;;8.10;;
22973;SDS011;11653;50.848;4.584;2023-04-07T08:36:32;14.23;;;9.53;;
22973;SDS011;11653;50.848;4.584;2023-04-07T08:38:58;14.63;;;8.80;;
22973;SDS011;11653;50.848;4.584;2023-04-07T08:44:00;10.53;;;7.27;;
22973;SDS011;11653;50.848;4.584;2023-04-07T08:46:27;10.83;;;7.50;;
22973;SDS011;11653;50.848;4.584;2023-04-07T08:48:54;15.43;;;7.43;;
22973;SDS011;11653;50.848;4.584;2023-04-07T08:51:24;9.03;;;6.60;;
22973;SDS011;11653;50.848;4.584;2023-04-07T08:53:51;13.80;;;6.70;;
22973;SDS011;11653;50.848;4.584;2023-04-07T08:56:18;10.77;;;6.20;;
22973;SDS011;11653;50.848;4.584;2023-04-07T08:58:47;12.57;;;6.17;;
22973;SDS011;11653;50.848;4.584;2023-04-07T09:01:13;9.70;;;6.80;;
22973;SDS011;11653;50.848;4.584;2023-04-07T09:03:41;8.60;;;6.03;;
22973;SDS011;11653;50.848;4.584;2023-04-07T09:06:08;8.97;;;5.20;;
22973;SDS011;11653;50.848;4.584;2023-04-07T09:08:35;14.07;;;5.77;;
22973;SDS011;11653;50.848;4.584;2023-04-07T09:11:01;9.70;;;5.20;;
22973;SDS011;11653;50.848;4.584;2023-04-07T09:13:27;9.20;;;5.10;;
22973;SDS011;11653;50.848;4.584;2023-04-07T09:15:52;10.20;;;5.33;;
22973;SDS011;11653;50.848;4.584;2023-04-07T09:18:18;8.83;;;4.63;;
22973;SDS011;11653;50.848;4.584;2023-04-07T09:25:57;9.17;;;5.13;;
22973;SDS011;11653;50.848;4.584;2023-04-07T09:28:25;9.00;;;4.87;;
22973;SDS011;11653;50.848;4.584;2023-04-07T09:31:05;12.30;;;4.97;;
22973;SDS011;11653;50.848;4.584;2023-04-07T09:33:32;8.47;;;5.20;;
22973;SDS011;11653;50.848;4.584;2023-04-07T09:35:58;7.37;;;4.40;;
22973;SDS011;11653;50.848;4.584;2023-04-07T09:38:31;7.67;;;4.50;;
22973;SDS011;11653;50.848;4.584;2023-04-07T09:41:04;7.93;;;4.30;;
22973;SDS011;11653;50.848;4.584;2023-04-07T09:43:35;7.33;;;4.90;;
22973;SDS011;11653;50.848;4.584;2023-04-07T09:46:20;7.03;;;4.47;;
22973;SDS011;11653;50.848;4.584;2023-04-07T09:48:46;7.47;;;3.67;;
22973;SDS011;11653;50.848;4.584;2023-04-07T09:51:13;8.37;;;4.43;;
22973;SDS011;11653;50.848;4.584;2023-04-07T09:53:41;6.67;;;4.83;;
22973;SDS011;11653;50.848;4.584;2023-04-07T09:56:12;6.97;;;3.80;;
22973;SDS011;11653;50.848;4.584;2023-04-07T09:58:40;5.83;;;3.03;;
22973;SDS011;11653;50.848;4.584;2023-04-07T10:01:07;7.60;;;3.50;;
22973;SDS011;11653;50.848;4.584;2023-04-07T10:03:34;4.73;;;3.33;;
22973;SDS011;11653;50.848;4.584;2023-04-07T10:06:01;6.30;;;3.23;;
22973;SDS011;11653;50.848;4.584;2023-04-07T10:08:27;5.33;;;3.70;;
22973;SDS011;11653;50.848;4.584;2023-04-07T10:10:55;7.97;;;3.30;;
22973;SDS011;11653;50.848;4.584;2023-04-07T10:13:22;6.57;;;4.37;;
22973;SDS011;11653;50.848;4.584;2023-04-07T10:15:49;4.33;;;3.13;;
22973;SDS011;11653;50.848;4.584;2023-04-07T10:18:16;5.83;;;3.27;;
22973;SDS011;11653;50.848;4.584;2023-04-07T10:20:44;4.47;;;3.20;;
22973;SDS011;11653;50.848;4.584;2023-04-07T10:23:59;5.10;;;3.07;;
22973;SDS011;11653;50.848;4.584;2023-04-07T10:26:14;7.77;;;3.03;;
22973;SDS011;11653;50.848;4.584;2023-04-07T10:28:44;5.90;;;2.97;;
22973;SDS011;11653;50.848;4.584;2023-04-07T10:31:15;9.67;;;3.13;;
22973;SDS011;11653;50.848;4.584;2023-04-07T10:33:52;4.77;;;2.10;;
22973;SDS011;11653;50.848;4.584;2023-04-07T10:36:18;5.47;;;2.50;;
22973;SDS011;11653;50.848;4.584;2023-04-07T10:41:36;5.07;;;2.40;;
22973;SDS011;11653;50.848;4.584;2023-04-07T10:44:06;6.60;;;2.37;;
22973;SDS011;11653;50.848;4.584;2023-04-07T10:49:21;5.93;;;1.93;;
22973;SDS011;11653;50.848;4.584;2023-04-07T10:52:20;3.30;;;1.77;;
22973;SDS011;11653;50.848;4.584;2023-04-07T10:54:39;6.10;;;2.30;;
22973;SDS011;11653;50.848;4.584;2023-04-07T10:57:09;6.20;;;2.10;;
22973;SDS011;11653;50.848;4.584;2023-04-07T10:59:41;7.80;;;3.20;;
22973;SDS011;11653;50.848;4.584;2023-04-07T11:04:52;4.90;;;2.43;;
22973;SDS011;11653;50.848;4.584;2023-04-07T11:07:17;4.40;;;2.00;;
22973;SDS011;11653;50.848;4.584;2023-04-07T11:09:45;5.33;;;1.90;;
22973;SDS011;11653;50.848;4.584;2023-04-07T11:12:21;4.50;;;1.80;;
22973;SDS011;11653;50.848;4.584;2023-04-07T11:14:47;5.00;;;2.13;;
22973;SDS011;11653;50.848;4.584;2023-04-07T11:17:13;7.10;;;2.30;;
22973;SDS011;11653;50.848;4.584;2023-04-07T11:19:57;2.93;;;1.70;;
22973;SDS011;11653;50.848;4.584;2023-04-07T11:22:23;7.77;;;2.10;;
22973;SDS011;11653;50.848;4.584;2023-04-07T11:24:49;8.10;;;2.50;;
22973;SDS011;11653;50.848;4.584;2023-04-07T11:27:15;6.00;;;1.77;;
22973;SDS011;11653;50.848;4.584;2023-04-07T11:29:41;5.30;;;2.93;;
22973;SDS011;11653;50.848;4.584;2023-04-07T11:32:07;10.33;;;2.03;;
22973;SDS011;11653;50.848;4.584;2023-04-07T11:34:34;5.77;;;2.57;;
22973;SDS011;11653;50.848;4.584;2023-04-07T11:39:55;11.33;;;2.90;;
22973;SDS011;11653;50.848;4.584;2023-04-07T11:42:38;7.73;;;2.23;;
22973;SDS011;11653;50.848;4.584;2023-04-07T11:45:04;11.53;;;3.10;;
22973;SDS011;11653;50.848;4.584;2023-04-07T11:47:39;6.93;;;2.40;;
22973;SDS011;11653;50.848;4.584;2023-04-07T11:50:05;6.97;;;2.97;;
22973;SDS011;11653;50.848;4.584;2023-04-07T11:52:42;5.43;;;2.20;;
22973;SDS011;11653;50.848;4.584;2023-04-07T11:57:48;5.73;;;2.00;;
22973;SDS011;11653;50.848;4.584;2023-04-07T12:00:17;4.73;;;2.00;;
22973;SDS011;11653;50.848;4.584;2023-04-07T12:02:44;6.37;;;1.90;;
22973;SDS011;11653;50.848;4.584;2023-04-07T12:05:10;6.73;;;2.00;;
22973;SDS011;11653;50.848;4.584;2023-04-07T12:07:36;8.27;;;2.50;;
22973;SDS011;11653;50.848;4.584;2023-04-07T12:10:22;8.63;;;2.43;;
22973;SDS011;11653;50.848;4.584;2023-04-07T12:12:51;5.93;;;2.13;;
22973;SDS011;11653;50.848;4.584;2023-04-07T12:15:17;9.40;;;2.10;;
22973;SDS011;11653;50.848;4.584;2023-04-07T12:17:44;3.63;;;1.80;;
22973;SDS011;11653;50.848;4.584;2023-04-07T12:20:11;9.57;;;2.30;;
22973;SDS011;11653;50.848;4.584;2023-04-07T12:22:37;8.10;;;2.03;;
22973;SDS011;11653;50.848;4.584;2023-04-07T12:25:03;4.73;;;1.80;;
22973;SDS011;11653;50.848;4.584;2023-04-07T12:27:29;5.37;;;2.30;;
22973;SDS011;11653;50.848;4.584;2023-04-07T12:29:55;5.70;;;2.00;;
22973;SDS011;11653;50.848;4.584;2023-04-07T12:32:21;6.67;;;2.70;;
22973;SDS011;11653;50.848;4.584;2023-04-07T12:34:47;9.33;;;2.70;;
22973;SDS011;11653;50.848;4.584;2023-04-07T12:37:12;11.67;;;3.20;;
22973;SDS011;11653;50.848;4.584;2023-04-07T12:39:38;6.67;;;2.27;;
22973;SDS011;11653;50.848;4.584;2023-04-07T12:42:04;5.43;;;2.60;;
22973;SDS011;11653;50.848;4.584;2023-04-07T12:44:29;8.63;;;2.67;;
22973;SDS011;11653;50.848;4.584;2023-04-07T12:46:55;8.47;;;2.67;;
22973;SDS011;11653;50.848;4.584;2023-04-07T12:49:21;11.47;;;2.97;;
22973;SDS011;11653;50.848;4.584;2023-04-07T12:51:48;8.50;;;3.43;;
22973;SDS011;11653;50.848;4.584;2023-04-07T12:54:14;9.30;;;3.07;;
22973;SDS011;11653;50.848;4.584;2023-04-07T12:56:40;7.27;;;2.43;;
22973;SDS011;11653;50.848;4.584;2023-04-07T12:59:06;3.93;;;2.10;;
22973;SDS011;11653;50.848;4.584;2023-04-07T13:01:32;6.37;;;2.30;;
22973;SDS011;11653;50.848;4.584;2023-04-07T13:03:59;5.30;;;2.43;;
22973;SDS011;11653;50.848;4.584;2023-04-07T13:06:25;12.60;;;1.87;;
22973;SDS011;11653;50.848;4.584;2023-04-07T13:08:51;9.37;;;2.33;;
22973;SDS011;11653;50.848;4.584;2023-04-07T13:11:17;7.43;;;2.17;;
22973;SDS011;11653;50.848;4.584;2023-04-07T13:13:43;5.67;;;2.20;;
22973;SDS011;11653;50.848;4.584;2023-04-07T13:16:09;4.53;;;2.00;;
22973;SDS011;11653;50.848;4.584;2023-04-07T13:18:35;10.53;;;2.13;;
22973;SDS011;11653;50.848;4.584;2023-04-07T13:21:00;5.43;;;2.10;;
22973;SDS011;11653;50.848;4.584;2023-04-07T13:23:27;9.20;;;2.60;;
22973;SDS011;11653;50.848;4.584;2023-04-07T13:25:52;8.03;;;2.27;;
22973;SDS011;11653;50.848;4.584;2023-04-07T13:28:18;8.37;;;1.90;;
22973;SDS011;11653;50.848;4.584;2023-04-07T13:30:45;7.03;;;1.90;;
22973;SDS011;11653;50.848;4.584;2023-04-07T13:33:11;8.90;;;2.03;;
22973;SDS011;11653;50.848;4.584;2023-04-07T13:35:37;5.13;;;2.07;;
22973;SDS011;11653;50.848;4.584;2023-04-07T13:38:03;5.93;;;1.80;;
22973;SDS011;11653;50.848;4.584;2023-04-07T13:40:28;7.10;;;2.13;;
22973;SDS011;11653;50.848;4.584;2023-04-07T13:42:54;7.10;;;2.10;;
22973;SDS011;11653;50.848;4.584;2023-04-07T13:45:21;8.33;;;2.80;;
22973;SDS011;11653;50.848;4.584;2023-04-07T13:47:47;10.90;;;2.73;;
22973;SDS011;11653;50.848;4.584;2023-04-07T13:50:13;12.67;;;3.30;;
22973;SDS011;11653;50.848;4.584;2023-04-07T13:52:38;9.97;;;2.20;;
22973;SDS011;11653;50.848;4.584;2023-04-07T13:55:04;9.37;;;2.40;;
22973;SDS011;11653;50.848;4.584;2023-04-07T13:57:30;6.37;;;2.20;;
22973;SDS011;11653;50.848;4.584;2023-04-07T13:59:56;7.23;;;2.37;;
22973;SDS011;11653;50.848;4.584;2023-04-07T14:02:22;6.17;;;2.30;;
22973;SDS011;11653;50.848;4.584;2023-04-07T14:04:48;6.73;;;2.07;;
22973;SDS011;11653;50.848;4.584;2023-04-07T14:07:14;4.87;;;2.20;;
22973;SDS011;11653;50.848;4.584;2023-04-07T14:09:40;6.03;;;2.37;;
22973;SDS011;11653;50.848;4.584;2023-04-07T14:12:07;9.57;;;1.97;;
22973;SDS011;11653;50.848;4.584;2023-04-07T14:14:33;10.37;;;2.70;;
22973;SDS011;11653;50.848;4.584;2023-04-07T14:17:01;7.70;;;2.23;;
22973;SDS011;11653;50.848;4.584;2023-04-07T14:19:27;8.57;;;2.00;;
22973;SDS011;11653;50.848;4.584;2023-04-07T14:21:54;5.33;;;1.83;;
22973;SDS011;11653;50.848;4.584;2023-04-07T14:24:20;6.13;;;2.10;;
22973;SDS011;11653;50.848;4.584;2023-04-07T14:26:46;4.77;;;2.07;;
22973;SDS011;11653;50.848;4.584;2023-04-07T14:29:12;5.33;;;1.80;;
22973;SDS011;11653;50.848;4.584;2023-04-07T14:31:38;4.30;;;2.43;;
22973;SDS011;11653;50.848;4.584;2023-04-07T14:34:04;3.73;;;1.73;;
22973;SDS011;11653;50.848;4.584;2023-04-07T14:36:32;4.13;;;1.87;;
22973;SDS011;11653;50.848;4.584;2023-04-07T14:38:58;6.87;;;2.17;;
22973;SDS011;11653;50.848;4.584;2023-04-07T14:41:25;3.87;;;2.10;;
22973;SDS011;11653;50.848;4.584;2023-04-07T14:43:51;4.77;;;1.90;;
22973;SDS011;11653;50.848;4.584;2023-04-07T14:46:23;5.10;;;1.60;;
22973;SDS011;11653;50.848;4.584;2023-04-07T14:48:52;5.50;;;1.93;;
22973;SDS011;11653;50.848;4.584;2023-04-07T14:51:18;6.23;;;1.70;;
22973;SDS011;11653;50.848;4.584;2023-04-07T14:53:45;3.80;;;1.60;;
22973;SDS011;11653;50.848;4.584;2023-04-07T14:56:11;7.13;;;2.07;;
22973;SDS011;11653;50.848;4.584;2023-04-07T14:58:37;4.80;;;1.97;;